KABR/ABR METAR and TAF weather

Enter ICAO airport designator
Station Type Date Time Source
KABR METAR 2019/07/17 17:53 UTC NOAA

KABR 171753Z AUTO 24014G21KT 10SM CLR 28/19 A2978 RMK AO2 SLP074 T02830189 10283 20211 53003


Station Type Date Time Source
KABR Decoded METAR 2019/07/17 17:53 UTC NOAA

ABERDEEN REGIONAL AIRPORT, SD, United States (KABR) 45-27N 098-25W 400M
Jul 17, 2019 - 01:53 PM EDT / 2019.07.17 1753 UTC
Wind: from the WSW (240 degrees) at 16 MPH (14 KT) gusting to 24 MPH (21 KT):0
Visibility: 10 mile(s):0
Sky conditions: clear
Temperature: 82.9 F (28.3 C)
Dew Point: 66.0 F (18.9 C)
Relative Humidity: 56%
Pressure (altimeter): 29.78 in. Hg (1008 hPa)
Pressure tendency: 0.01 inches (0.3 hPa) higher than three hours ago
ob: KABR 171753Z AUTO 24014G21KT 10SM CLR 28/19 A2978 RMK AO2 SLP074 T02830189 10283 20211 53003
cycle: 18

Station Type Date Time Source
KABR TAF 2019/07/17 18:30 UTC NOAA

TAF KABR 171727Z 1718/1818 23011KT P6SM BKN045
FM172000 23007KT P6SM SCT045
FM180000 VRB03KT P6SM BKN120
FM181100 25006KT P6SM SCT180

Example: see airport list